Time;durP1;ratioP1;P1;durP2;ratioP2;P2;SDS_P1;SDS_P2;PMS_P1;PMS_P2;Temp;Humidity;BMP_temperature;BMP_pressure;BME280_temperature;BME280_humidity;BME280_pressure;Samples;Min_cycle;Max_cycle;Signal;HPM_P1;HPM_P2
2022/09/13 00:00:19;;;;;;;6.20;3.72;;;;;;;;;;5050134;28;20445;-85
2022/09/13 00:02:44;;;;;;;4.70;3.45;;;;;;;;;;5046022;28;20039;-85
2022/09/13 00:05:10;;;;;;;5.10;3.50;;;;;;;;;;5046221;28;20119;-84
2022/09/13 00:07:35;;;;;;;4.53;3.25;;;;;;;;;;5058910;28;20036;-84
2022/09/13 00:10:01;;;;;;;4.93;3.47;;;;;;;;;;5066010;28;20049;-85
2022/09/13 00:12:26;;;;;;;5.07;3.67;;;;;;;;;;5065279;28;20024;-85
2022/09/13 00:14:51;;;;;;;6.65;3.85;;;;;;;;;;5046206;28;20028;-85
2022/09/13 00:17:17;;;;;;;6.15;3.65;;;;;;;;;;5042522;28;20044;-85
2022/09/13 00:19:42;;;;;;;6.53;4.07;;;;;;;;;;5067725;28;21025;-85
2022/09/13 00:22:07;;;;;;;4.95;3.17;;;;;;;;;;5049623;28;20024;-84
2022/09/13 00:24:33;;;;;;;5.43;3.90;;;;;;;;;;5066739;28;20032;-85
2022/09/13 00:26:59;;;;;;;6.00;3.60;;;;;;;;;;5048968;28;20024;-84
2022/09/13 00:29:25;;;;;;;6.63;3.80;;;;;;;;;;5062966;28;20031;-84
2022/09/13 00:31:51;;;;;;;5.57;3.63;;;;;;;;;;5043993;28;20503;-85
2022/09/13 00:34:16;;;;;;;6.03;3.58;;;;;;;;;;5049701;28;20028;-85
2022/09/13 00:36:42;;;;;;;5.35;3.97;;;;;;;;;;5045251;28;20038;-85
2022/09/13 00:39:09;;;;;;;7.05;3.72;;;;;;;;;;5045395;28;20021;-85
2022/09/13 00:41:34;;;;;;;5.78;3.72;;;;;;;;;;5062793;28;20028;-85
2022/09/13 00:44:01;;;;;;;6.55;4.43;;;;;;;;;;5048089;28;20370;-85
2022/09/13 00:46:39;;;;;;;6.63;3.80;;;;;;;;;;5045545;28;20497;-85
2022/09/13 00:49:28;;;;;;;7.13;4.50;;;;;;;;;;5061780;28;20480;-85
2022/09/13 00:52:00;;;;;;;6.60;4.50;;;;;;;;;;5061095;28;20455;-85
2022/09/13 00:54:30;;;;;;;7.72;5.55;;;;;;;;;;5055129;28;20025;-85
2022/09/13 00:57:00;;;;;;;6.95;4.00;;;;;;;;;;5046801;28;20070;-85
2022/09/13 00:59:31;;;;;;;6.55;4.25;;;;;;;;;;5062907;28;20575;-85
2022/09/13 01:01:58;;;;;;;6.47;4.53;;;;;;;;;;5039965;28;20024;-85
2022/09/13 01:04:26;;;;;;;5.90;4.13;;;;;;;;;;5064016;28;20028;-84
2022/09/13 01:06:56;;;;;;;6.82;4.60;;;;;;;;;;5042681;28;20039;-84
2022/09/13 01:09:22;;;;;;;8.48;4.25;;;;;;;;;;5063487;28;20434;-85
2022/09/13 01:12:03;;;;;;;5.75;3.70;;;;;;;;;;5042834;28;20580;-82
2022/09/13 01:14:29;;;;;;;6.35;4.50;;;;;;;;;;5051773;28;20036;-85
2022/09/13 01:16:55;;;;;;;5.88;3.78;;;;;;;;;;5063098;28;20488;-85
2022/09/13 01:19:20;;;;;;;7.93;3.97;;;;;;;;;;5061265;28;20031;-85
2022/09/13 01:22:11;;;;;;;5.93;3.92;;;;;;;;;;5044512;28;20115;-86
2022/09/13 01:25:15;;;;;;;5.30;3.72;;;;;;;;;;5064059;28;20069;-83
2022/09/13 01:27:55;;;;;;;5.68;4.07;;;;;;;;;;5030501;28;20037;-84
2022/09/13 01:30:23;;;;;;;7.13;4.60;;;;;;;;;;5052078;28;20029;-85
2022/09/13 01:33:09;;;;;;;5.43;4.20;;;;;;;;;;5045246;28;20503;-85
2022/09/13 01:35:38;;;;;;;5.55;4.30;;;;;;;;;;5054162;28;20539;-85
2022/09/13 01:38:16;;;;;;;6.47;4.53;;;;;;;;;;5061770;28;20090;-85
2022/09/13 01:41:12;;;;;;;6.28;4.70;;;;;;;;;;5052850;28;20052;-85
2022/09/13 01:44:05;;;;;;;6.70;4.43;;;;;;;;;;5052876;28;20052;-83
2022/09/13 01:47:15;;;;;;;7.05;4.78;;;;;;;;;;5045988;28;20028;-85
2022/09/13 01:49:58;;;;;;;5.50;4.25;;;;;;;;;;5023809;28;20501;-85
2022/09/13 01:52:34;;;;;;;6.70;4.18;;;;;;;;;;5062408;28;20388;-85
2022/09/13 01:55:12;;;;;;;6.28;4.65;;;;;;;;;;5060421;28;20541;-85
2022/09/13 01:57:52;;;;;;;5.43;3.92;;;;;;;;;;5045987;28;20389;-85
2022/09/13 02:00:18;;;;;;;7.25;4.60;;;;;;;;;;5061821;28;20086;-85
2022/09/13 02:03:03;;;;;;;6.00;4.45;;;;;;;;;;5057871;28;20040;-85
2022/09/13 02:05:41;;;;;;;6.00;4.60;;;;;;;;;;5046343;28;20481;-85
2022/09/13 02:08:15;;;;;;;6.38;4.20;;;;;;;;;;5051920;28;20443;-84
2022/09/13 02:10:46;;;;;;;7.30;4.32;;;;;;;;;;5059210;28;20025;-85
2022/09/13 02:13:20;;;;;;;6.38;4.57;;;;;;;;;;5062607;28;20024;-85
2022/09/13 02:15:48;;;;;;;6.07;4.82;;;;;;;;;;5047856;28;20482;-83
2022/09/13 02:18:16;;;;;;;8.73;4.50;;;;;;;;;;5042899;28;20028;-85
2022/09/13 02:20:43;;;;;;;5.35;4.20;;;;;;;;;;5061100;28;20672;-84
2022/09/13 02:23:15;;;;;;;5.88;4.45;;;;;;;;;;5059149;28;20090;-85
2022/09/13 02:25:43;;;;;;;6.40;4.15;;;;;;;;;;5044524;28;20472;-85
2022/09/13 02:28:13;;;;;;;6.40;4.68;;;;;;;;;;5058242;28;20099;-85
2022/09/13 02:30:43;;;;;;;6.20;4.45;;;;;;;;;;5053094;28;20052;-85
2022/09/13 02:33:17;;;;;;;5.93;4.18;;;;;;;;;;5063386;28;20029;-85
2022/09/13 02:36:18;;;;;;;6.80;4.53;;;;;;;;;;5066063;28;20029;-85
2022/09/13 02:38:44;;;;;;;6.78;4.53;;;;;;;;;;5018663;28;20598;-85
2022/09/13 02:41:21;;;;;;;5.85;4.38;;;;;;;;;;5060434;28;20111;-85
2022/09/13 02:43:52;;;;;;;7.32;4.60;;;;;;;;;;5059895;28;20533;-85
2022/09/13 02:46:46;;;;;;;6.97;4.43;;;;;;;;;;5061018;28;20025;-85
2022/09/13 02:49:15;;;;;;;;;;;;;;;;;;5043361;28;20028;-85
2022/09/13 02:52:08;;;;;;;5.53;4.35;;;;;;;;;;5044088;28;20300;-86
2022/09/13 02:54:41;;;;;;;6.43;4.35;;;;;;;;;;5060780;28;20024;-85
2022/09/13 02:57:19;;;;;;;7.13;4.70;;;;;;;;;;5062904;28;20032;-85
2022/09/13 02:59:46;;;;;;;6.07;4.47;;;;;;;;;;5058643;28;20107;-85
2022/09/13 03:02:15;;;;;;;7.00;4.68;;;;;;;;;;5046326;28;20033;-85
2022/09/13 03:04:41;;;;;;;8.27;4.88;;;;;;;;;;5061894;28;20027;-85
2022/09/13 03:07:12;;;;;;;6.70;4.85;;;;;;;;;;5064014;28;20033;-85
2022/09/13 03:09:45;;;;;;;7.80;5.07;;;;;;;;;;5062828;28;20047;-85
2022/09/13 03:12:16;;;;;;;7.82;4.60;;;;;;;;;;5059460;28;20032;-84
2022/09/13 03:15:16;;;;;;;6.63;4.82;;;;;;;;;;5035240;28;20044;-84
2022/09/13 03:18:06;;;;;;;6.35;4.75;;;;;;;;;;5055395;28;20025;-85
2022/09/13 03:20:49;;;;;;;8.45;4.80;;;;;;;;;;5056036;28;20021;-85
2022/09/13 03:23:17;;;;;;;6.28;4.55;;;;;;;;;;5061846;28;20059;-85
2022/09/13 03:25:46;;;;;;;7.35;5.28;;;;;;;;;;5046155;28;20720;-84
2022/09/13 03:28:23;;;;;;;6.82;4.72;;;;;;;;;;5060005;28;20033;-84
2022/09/13 03:30:56;;;;;;;7.40;4.80;;;;;;;;;;5046417;28;20025;-85
2022/09/13 03:33:35;;;;;;;6.60;4.82;;;;;;;;;;5043982;28;20040;-84
2022/09/13 03:36:12;;;;;;;6.72;4.88;;;;;;;;;;5061444;28;20029;-85
2022/09/13 03:39:08;;;;;;;7.78;5.18;;;;;;;;;;5061297;28;20078;-84
2022/09/13 03:41:41;;;;;;;7.28;5.35;;;;;;;;;;5046432;28;20044;-84
2022/09/13 03:44:11;;;;;;;9.27;6.20;;;;;;;;;;5050463;28;20380;-85
2022/09/13 03:46:41;;;;;;;6.43;4.75;;;;;;;;;;5066801;28;20036;-85
2022/09/13 03:49:10;;;;;;;8.00;5.18;;;;;;;;;;5052170;28;20476;-84
2022/09/13 03:51:37;;;;;;;8.27;5.60;;;;;;;;;;5048782;28;20025;-85
2022/09/13 03:54:07;;;;;;;9.00;6.00;;;;;;;;;;5067521;28;20476;-85
2022/09/13 03:56:33;;;;;;;7.07;4.80;;;;;;;;;;5067267;28;20020;-84
2022/09/13 03:58:58;;;;;;;6.68;4.90;;;;;;;;;;5067014;28;20122;-84
2022/09/13 04:01:24;;;;;;;8.18;4.95;;;;;;;;;;5065251;28;20448;-85
2022/09/13 04:03:50;;;;;;;8.48;5.80;;;;;;;;;;5066741;28;20472;-85
2022/09/13 04:06:16;;;;;;;6.78;5.13;;;;;;;;;;5066996;28;20082;-84
2022/09/13 04:08:42;;;;;;;8.38;5.25;;;;;;;;;;5057179;28;20048;-84
2022/09/13 04:11:08;;;;;;;7.85;4.95;;;;;;;;;;5043543;28;20035;-84
2022/09/13 04:13:35;;;;;;;6.72;4.97;;;;;;;;;;5041033;28;20028;-83
2022/09/13 04:16:01;;;;;;;6.85;5.32;;;;;;;;;;5051240;28;20024;-84
2022/09/13 04:18:30;;;;;;;9.07;6.47;;;;;;;;;;5064481;28;20024;-85
2022/09/13 04:20:57;;;;;;;10.00;5.65;;;;;;;;;;5043618;28;20045;-85
2022/09/13 04:23:24;;;;;;;9.18;5.57;;;;;;;;;;5046703;28;20484;-84
2022/09/13 04:25:50;;;;;;;7.25;5.82;;;;;;;;;;5050403;28;20502;-85
2022/09/13 04:28:17;;;;;;;10.18;6.50;;;;;;;;;;5062740;28;20025;-85
2022/09/13 04:30:44;;;;;;;7.57;5.50;;;;;;;;;;5044305;28;20161;-84
2022/09/13 04:33:09;;;;;;;8.48;6.35;;;;;;;;;;5046335;28;20503;-85
2022/09/13 04:35:35;;;;;;;7.18;5.70;;;;;;;;;;5051360;28;20044;-81
2022/09/13 04:38:00;;;;;;;6.97;5.53;;;;;;;;;;5047306;28;20063;-81
2022/09/13 04:40:25;;;;;;;7.70;5.30;;;;;;;;;;5072368;28;20036;-81
2022/09/13 04:42:51;;;;;;;6.78;5.15;;;;;;;;;;5046318;28;20021;-81
2022/09/13 04:45:16;;;;;;;6.90;5.53;;;;;;;;;;5065271;28;20103;-81
2022/09/13 04:47:42;;;;;;;10.82;5.40;;;;;;;;;;5055898;28;20035;-81
2022/09/13 04:50:08;;;;;;;7.10;5.57;;;;;;;;;;5047663;28;20425;-80
2022/09/13 04:52:34;;;;;;;7.60;5.70;;;;;;;;;;5041663;28;20183;-81
2022/09/13 04:55:00;;;;;;;7.45;5.68;;;;;;;;;;5050337;28;20122;-81
2022/09/13 04:57:27;;;;;;;7.00;5.25;;;;;;;;;;5067926;28;20376;-81
2022/09/13 04:59:52;;;;;;;6.97;5.30;;;;;;;;;;5058850;28;20130;-81
2022/09/13 05:02:18;;;;;;;7.15;5.50;;;;;;;;;;5045431;28;20384;-81
2022/09/13 05:04:43;;;;;;;8.90;6.32;;;;;;;;;;5064544;28;20033;-81
2022/09/13 05:07:09;;;;;;;10.15;6.75;;;;;;;;;;5050705;28;20527;-81
2022/09/13 05:10:36;;;;;;;8.95;6.28;;;;;;;;;;5062167;28;20033;-81
2022/09/13 05:13:01;;;;;;;7.47;5.60;;;;;;;;;;5059947;28;20034;-81
2022/09/13 05:15:26;;;;;;;7.50;5.78;;;;;;;;;;5066129;28;20025;-81
2022/09/13 05:17:52;;;;;;;7.75;5.57;;;;;;;;;;5046522;28;20099;-81
2022/09/13 05:20:17;;;;;;;8.40;5.65;;;;;;;;;;5062378;28;20461;-81
2022/09/13 05:22:42;;;;;;;8.82;5.72;;;;;;;;;;5052140;28;20047;-81
2022/09/13 05:25:08;;;;;;;9.52;6.00;;;;;;;;;;5063803;28;20035;-81
2022/09/13 05:27:34;;;;;;;7.10;5.65;;;;;;;;;;5047509;28;20025;-81
2022/09/13 05:29:59;;;;;;;9.20;6.18;;;;;;;;;;5049075;28;20032;-81
2022/09/13 05:33:03;;;;;;;7.90;5.72;;;;;;;;;;5046712;28;20506;-81
2022/09/13 05:35:28;;;;;;;8.55;5.82;;;;;;;;;;4967267;28;20114;-81
2022/09/13 05:37:54;;;;;;;7.68;5.63;;;;;;;;;;4966770;28;20030;-81
2022/09/13 05:40:34;;;;;;;7.70;6.03;;;;;;;;;;5004345;28;20090;-81
2022/09/13 05:43:00;;;;;;;9.00;5.70;;;;;;;;;;5049148;28;20028;-81
2022/09/13 05:45:25;;;;;;;8.52;5.72;;;;;;;;;;5045438;28;20629;-81
2022/09/13 05:47:51;;;;;;;8.57;5.68;;;;;;;;;;5068220;28;20036;-81
2022/09/13 05:50:19;;;;;;;9.15;6.25;;;;;;;;;;5046937;28;20070;-81
2022/09/13 05:52:51;;;;;;;9.00;6.57;;;;;;;;;;5047469;28;20028;-81
2022/09/13 05:55:16;;;;;;;10.18;6.28;;;;;;;;;;5063932;28;20024;-81
2022/09/13 05:57:42;;;;;;;9.65;6.78;;;;;;;;;;5049886;28;20028;-81
2022/09/13 06:00:08;;;;;;;9.52;6.93;;;;;;;;;;5048165;28;20017;-81
2022/09/13 06:02:33;;;;;;;8.80;7.05;;;;;;;;;;5052075;28;20032;-81
2022/09/13 06:04:59;;;;;;;10.95;7.55;;;;;;;;;;5046749;28;20058;-81
2022/09/13 06:07:27;;;;;;;12.40;7.22;;;;;;;;;;5052021;28;20028;-81
2022/09/13 06:09:53;;;;;;;9.63;7.93;;;;;;;;;;5042646;28;20743;-81
2022/09/13 06:12:18;;;;;;;8.35;6.72;;;;;;;;;;5066887;28;20107;-82
2022/09/13 06:14:43;;;;;;;9.05;7.05;;;;;;;;;;5045668;28;20480;-82
2022/09/13 06:17:09;;;;;;;11.15;7.65;;;;;;;;;;5054082;28;20028;-81
2022/09/13 06:19:34;;;;;;;10.50;7.15;;;;;;;;;;5058706;28;20111;-82
2022/09/13 06:22:00;;;;;;;9.88;7.40;;;;;;;;;;5043948;28;20025;-81
2022/09/13 06:24:25;;;;;;;12.30;8.18;;;;;;;;;;5049772;28;20031;-81
2022/09/13 06:26:50;;;;;;;9.85;8.18;;;;;;;;;;5061341;28;20025;-81
2022/09/13 06:29:16;;;;;;;10.48;7.57;;;;;;;;;;5046461;28;20056;-82
2022/09/13 06:31:43;;;;;;;10.90;7.97;;;;;;;;;;5045286;28;20025;-81
2022/09/13 06:34:12;;;;;;;11.52;8.55;;;;;;;;;;5041132;28;20028;-81
2022/09/13 06:36:38;;;;;;;10.52;8.32;;;;;;;;;;5050829;28;20021;-81
2022/09/13 06:39:05;;;;;;;12.05;8.40;;;;;;;;;;5063939;28;20033;-81
2022/09/13 06:41:31;;;;;;;11.95;8.50;;;;;;;;;;5066035;28;20377;-81
2022/09/13 06:43:58;;;;;;;9.38;7.57;;;;;;;;;;5062831;28;20036;-81
2022/09/13 06:46:25;;;;;;;11.95;8.60;;;;;;;;;;5066301;28;20056;-82
2022/09/13 06:48:51;;;;;;;10.57;8.45;;;;;;;;;;5038702;28;20032;-81
2022/09/13 06:51:19;;;;;;;12.02;9.45;;;;;;;;;;5046732;28;20030;-81
2022/09/13 06:53:46;;;;;;;12.25;9.35;;;;;;;;;;5062618;28;20028;-81
2022/09/13 06:56:15;;;;;;;13.50;9.38;;;;;;;;;;5051440;28;20033;-81
2022/09/13 06:58:42;;;;;;;14.80;9.40;;;;;;;;;;5063342;28;20047;-81
2022/09/13 07:01:16;;;;;;;13.45;10.05;;;;;;;;;;5066112;28;20031;-81
2022/09/13 07:03:44;;;;;;;12.82;9.85;;;;;;;;;;5066106;28;20028;-81
2022/09/13 07:06:12;;;;;;;16.40;10.23;;;;;;;;;;5059078;28;20033;-81
2022/09/13 07:08:39;;;;;;;13.93;10.77;;;;;;;;;;5051964;28;20060;-81
2022/09/13 07:11:05;;;;;;;15.00;10.77;;;;;;;;;;5046968;28;20530;-81
2022/09/13 07:13:30;;;;;;;14.32;10.80;;;;;;;;;;5060916;28;20033;-82
2022/09/13 07:15:56;;;;;;;13.10;10.18;;;;;;;;;;5054579;28;20119;-81
2022/09/13 07:18:22;;;;;;;16.77;10.25;;;;;;;;;;5053650;28;20412;-81
2022/09/13 07:20:48;;;;;;;13.98;10.63;;;;;;;;;;5051713;28;20066;-81
2022/09/13 07:23:13;;;;;;;15.95;10.88;;;;;;;;;;5064093;28;20130;-81
2022/09/13 07:25:38;;;;;;;16.45;10.75;;;;;;;;;;5061152;28;20085;-81
2022/09/13 07:28:04;;;;;;;16.52;11.23;;;;;;;;;;5052924;28;20484;-80
2022/09/13 07:30:29;;;;;;;16.70;11.32;;;;;;;;;;5068710;28;20615;-80
2022/09/13 07:32:55;;;;;;;18.95;13.65;;;;;;;;;;5073601;28;20478;-81
2022/09/13 07:35:20;;;;;;;18.88;13.63;;;;;;;;;;5066381;28;20505;-80
2022/09/13 07:37:45;;;;;;;19.38;14.48;;;;;;;;;;5050991;28;20027;-81
2022/09/13 07:40:11;;;;;;;19.38;13.65;;;;;;;;;;5068213;28;20530;-81
2022/09/13 07:42:36;;;;;;;19.65;13.48;;;;;;;;;;5050868;28;20024;-80
2022/09/13 07:45:02;;;;;;;19.45;14.10;;;;;;;;;;5070392;28;20029;-80
2022/09/13 07:47:31;;;;;;;23.85;14.15;;;;;;;;;;5051894;28;20032;-80
2022/09/13 07:49:56;;;;;;;21.73;15.05;;;;;;;;;;5049851;28;20041;-80
2022/09/13 07:52:21;;;;;;;21.63;14.18;;;;;;;;;;5054447;28;20030;-80
2022/09/13 07:54:47;;;;;;;19.60;14.48;;;;;;;;;;5067521;28;20020;-80
2022/09/13 07:57:12;;;;;;;21.70;14.02;;;;;;;;;;5050986;28;20073;-81
2022/09/13 07:59:38;;;;;;;20.65;14.45;;;;;;;;;;5050684;28;20032;-81
2022/09/13 08:02:03;;;;;;;20.10;14.57;;;;;;;;;;5063314;28;20020;-80
2022/09/13 08:04:28;;;;;;;22.50;14.13;;;;;;;;;;5045426;28;20032;-81
2022/09/13 08:06:54;;;;;;;18.67;13.73;;;;;;;;;;5063919;28;20036;-82
2022/09/13 08:09:20;;;;;;;18.48;12.45;;;;;;;;;;5053888;28;20404;-81
2022/09/13 08:11:51;;;;;;;17.23;12.93;;;;;;;;;;5052646;28;20051;-81
2022/09/13 08:14:18;;;;;;;17.25;12.68;;;;;;;;;;5070001;28;20029;-80
2022/09/13 08:16:44;;;;;;;18.25;11.32;;;;;;;;;;5047125;28;20020;-80
2022/09/13 08:19:12;;;;;;;13.52;10.40;;;;;;;;;;5047604;28;20074;-80
2022/09/13 08:21:39;;;;;;;16.10;10.68;;;;;;;;;;5063409;28;20414;-81
2022/09/13 08:24:07;;;;;;;14.75;10.38;;;;;;;;;;5071090;28;20035;-81
2022/09/13 08:26:34;;;;;;;15.63;11.52;;;;;;;;;;5064318;28;20376;-81
2022/09/13 08:29:02;;;;;;;15.75;11.10;;;;;;;;;;5070913;28;20051;-80
2022/09/13 08:31:28;;;;;;;17.02;10.98;;;;;;;;;;5075022;28;20063;-80
2022/09/13 08:33:54;;;;;;;15.05;10.68;;;;;;;;;;5076483;28;20064;-80
2022/09/13 08:36:22;;;;;;;13.32;9.05;;;;;;;;;;5070463;28;20376;-80
2022/09/13 08:38:50;;;;;;;13.40;8.40;;;;;;;;;;5072258;28;20103;-80
2022/09/13 08:41:38;;;;;;;11.15;7.25;;;;;;;;;;5066091;28;20024;-81
2022/09/13 08:44:22;;;;;;;10.30;6.93;;;;;;;;;;5071098;28;20029;-80
2022/09/13 08:46:48;;;;;;;7.90;5.50;;;;;;;;;;5053222;28;20017;-80
2022/09/13 08:49:19;;;;;;;8.88;5.97;;;;;;;;;;5070624;28;20028;-81
2022/09/13 08:51:52;;;;;;;7.47;5.13;;;;;;;;;;5072288;28;20025;-80
2022/09/13 08:54:19;;;;;;;6.78;4.50;;;;;;;;;;5071981;28;20081;-81
2022/09/13 08:56:53;;;;;;;7.30;4.65;;;;;;;;;;5052674;28;20099;-80
2022/09/13 08:59:46;;;;;;;9.30;5.55;;;;;;;;;;5052638;28;20023;-81
2022/09/13 09:02:33;;;;;;;8.10;5.57;;;;;;;;;;5060989;28;20024;-81
2022/09/13 09:05:04;;;;;;;9.40;5.57;;;;;;;;;;5068045;28;20021;-81
2022/09/13 09:07:41;;;;;;;10.00;4.95;;;;;;;;;;5046785;28;20028;-80
2022/09/13 09:10:15;;;;;;;8.10;5.95;;;;;;;;;;5065561;28;20033;-81
2022/09/13 09:12:49;;;;;;;9.95;5.75;;;;;;;;;;5056018;28;20400;-81
2022/09/13 09:15:20;;;;;;;8.98;5.00;;;;;;;;;;5048793;28;20020;-81
2022/09/13 09:17:57;;;;;;;8.18;5.78;;;;;;;;;;5049543;28;20021;-81
2022/09/13 09:20:35;;;;;;;8.10;5.47;;;;;;;;;;5066273;28;20039;-81
2022/09/13 09:23:06;;;;;;;7.90;5.85;;;;;;;;;;5044794;28;20074;-81
2022/09/13 09:25:33;;;;;;;8.82;5.72;;;;;;;;;;5047289;28;20048;-81
2022/09/13 09:27:58;;;;;;;8.55;5.22;;;;;;;;;;5059714;28;20082;-81
2022/09/13 09:30:37;;;;;;;9.07;5.60;;;;;;;;;;5054664;28;20029;-81
2022/09/13 09:33:37;;;;;;;9.80;6.32;;;;;;;;;;5042018;28;20085;-81
2022/09/13 09:36:17;;;;;;;9.80;6.50;;;;;;;;;;5034790;28;20043;-80
2022/09/13 09:38:43;;;;;;;9.50;6.70;;;;;;;;;;5048570;28;20025;-81
2022/09/13 09:41:21;;;;;;;10.40;6.47;;;;;;;;;;5043570;28;20064;-80
2022/09/13 09:43:46;;;;;;;10.40;6.78;;;;;;;;;;5061540;28;20078;-80
2022/09/13 09:46:16;;;;;;;8.60;6.35;;;;;;;;;;5052374;28;20029;-80
2022/09/13 09:48:52;;;;;;;8.10;5.70;;;;;;;;;;5057138;28;20060;-80
2022/09/13 09:51:20;;;;;;;9.02;5.85;;;;;;;;;;5052664;28;20802;-81
2022/09/13 09:53:48;;;;;;;8.13;5.75;;;;;;;;;;5064774;28;20423;-80
2022/09/13 09:56:33;;;;;;;10.32;6.22;;;;;;;;;;5050362;28;20081;-81
2022/09/13 09:58:59;;;;;;;11.13;6.38;;;;;;;;;;5062605;28;20518;-81
2022/09/13 10:01:26;;;;;;;9.48;6.05;;;;;;;;;;5044064;28;20508;-80
2022/09/13 10:04:07;;;;;;;10.43;6.20;;;;;;;;;;5048494;28;20035;-81
2022/09/13 10:06:34;;;;;;;10.07;7.05;;;;;;;;;;5056670;28;20025;-80
2022/09/13 10:09:00;;;;;;;9.48;6.28;;;;;;;;;;5049842;28;20158;-81
2022/09/13 10:11:42;;;;;;;10.80;7.53;;;;;;;;;;5047444;28;20032;-81
2022/09/13 10:14:40;;;;;;;10.32;6.22;;;;;;;;;;5061036;28;20028;-81
2022/09/13 10:17:27;;;;;;;11.57;7.18;;;;;;;;;;5063548;28;20036;-81
2022/09/13 10:20:11;;;;;;;10.30;6.18;;;;;;;;;;5046864;28;20028;-81
2022/09/13 10:22:37;;;;;;;9.05;6.10;;;;;;;;;;5042879;28;20036;-81
2022/09/13 10:25:22;;;;;;;8.68;5.40;;;;;;;;;;5066472;28;20036;-81
2022/09/13 10:27:59;;;;;;;8.85;5.65;;;;;;;;;;5058088;28;20025;-80
2022/09/13 10:30:39;;;;;;;7.43;3.97;;;;;;;;;;5052631;28;20040;-80
2022/09/13 10:33:12;;;;;;;8.10;5.20;;;;;;;;;;5077425;28;20021;-80
2022/09/13 10:35:37;;;;;;;9.25;6.72;;;;;;;;;;5064206;28;20021;-81
2022/09/13 10:38:02;;;;;;;8.48;6.10;;;;;;;;;;5068394;28;20077;-81
2022/09/13 10:40:32;;;;;;;6.53;4.70;;;;;;;;;;5062081;28;20020;-81
2022/09/13 10:43:02;;;;;;;7.78;4.70;;;;;;;;;;5044043;28;20408;-80
2022/09/13 10:45:30;;;;;;;9.30;5.47;;;;;;;;;;5060341;28;20029;-80
2022/09/13 10:48:13;;;;;;;8.30;5.45;;;;;;;;;;5061837;28;20098;-81
2022/09/13 10:50:39;;;;;;;7.93;5.20;;;;;;;;;;5067143;28;20480;-81
2022/09/13 10:53:44;;;;;;;6.93;4.55;;;;;;;;;;5065923;28;20033;-80
2022/09/13 10:56:22;;;;;;;6.60;4.45;;;;;;;;;;5053745;28;20438;-81
2022/09/13 10:58:48;;;;;;;6.28;4.45;;;;;;;;;;5074018;28;20384;-80
2022/09/13 11:01:43;;;;;;;6.05;4.20;;;;;;;;;;5049925;28;20032;-81
2022/09/13 11:04:11;;;;;;;8.98;3.72;;;;;;;;;;5054221;28;20372;-81
2022/09/13 11:06:45;;;;;;;6.00;3.90;;;;;;;;;;5073251;28;20465;-80
2022/09/13 11:09:16;;;;;;;6.78;4.05;;;;;;;;;;5048471;28;20045;-80
2022/09/13 11:11:47;;;;;;;4.32;3.28;;;;;;;;;;5059369;28;20029;-81
2022/09/13 11:14:27;;;;;;;6.40;4.03;;;;;;;;;;5064086;28;20384;-81
2022/09/13 11:17:25;;;;;;;6.82;3.80;;;;;;;;;;5045811;28;20028;-81
2022/09/13 11:20:06;;;;;;;4.88;2.97;;;;;;;;;;5069286;28;20029;-81
2022/09/13 11:22:49;;;;;;;6.50;2.72;;;;;;;;;;5068312;28;20607;-81
2022/09/13 11:25:23;;;;;;;;;;;;;;;;;;5073573;28;20038;-80
2022/09/13 11:28:02;;;;;;;3.58;2.55;;;;;;;;;;5071121;28;19921;-80
2022/09/13 11:30:34;;;;;;;3.50;2.22;;;;;;;;;;5071570;28;20041;-81
2022/09/13 11:33:20;;;;;;;4.20;3.00;;;;;;;;;;5073075;28;20028;-81
2022/09/13 11:35:49;;;;;;;5.95;2.67;;;;;;;;;;5074203;28;20275;-80
2022/09/13 11:38:45;;;;;;;5.20;2.97;;;;;;;;;;5065068;28;20055;-80
2022/09/13 11:41:37;;;;;;;3.95;2.38;;;;;;;;;;5070475;28;20439;-81
2022/09/13 11:44:11;;;;;;;6.72;2.92;;;;;;;;;;5065749;28;20506;-80
2022/09/13 11:47:00;;;;;;;4.40;2.50;;;;;;;;;;5059160;28;20025;-81
2022/09/13 11:49:53;;;;;;;4.68;2.83;;;;;;;;;;5047289;28;20063;-81
2022/09/13 11:52:21;;;;;;;5.05;2.92;;;;;;;;;;5068697;28;20384;-80
2022/09/13 11:55:14;;;;;;;4.20;3.05;;;;;;;;;;5063956;28;20021;-80
2022/09/13 11:57:45;;;;;;;3.95;2.83;;;;;;;;;;5067784;28;20027;-80
2022/09/13 12:00:19;;;;;;;4.05;2.92;;;;;;;;;;5037572;28;20029;-80
2022/09/13 12:02:51;;;;;;;4.05;2.08;;;;;;;;;;5059421;28;20091;-80
2022/09/13 12:05:21;;;;;;;7.80;2.97;;;;;;;;;;5065399;28;20122;-81
2022/09/13 12:07:55;;;;;;;4.47;2.70;;;;;;;;;;5064293;28;20032;-81
2022/09/13 12:10:28;;;;;;;3.35;2.00;;;;;;;;;;5067741;28;20025;-80
2022/09/13 12:12:55;;;;;;;3.03;2.00;;;;;;;;;;5053652;28;20043;-80
2022/09/13 12:15:39;;;;;;;4.45;2.50;;;;;;;;;;5053230;28;20020;-80
2022/09/13 12:18:20;;;;;;;3.58;1.95;;;;;;;;;;5062102;28;20028;-81
2022/09/13 12:20:59;;;;;;;2.88;1.77;;;;;;;;;;5068286;28;20055;-80
2022/09/13 12:23:34;;;;;;;8.48;3.60;;;;;;;;;;5065183;28;20511;-80
2022/09/13 12:26:06;;;;;;;3.05;2.10;;;;;;;;;;5066861;28;20021;-80
2022/09/13 12:28:39;;;;;;;4.00;2.10;;;;;;;;;;5054114;28;20365;-80
2022/09/13 12:31:18;;;;;;;3.92;1.88;;;;;;;;;;5050679;28;20033;-80
2022/09/13 12:33:46;;;;;;;3.10;1.80;;;;;;;;;;5050022;28;20098;-80
2022/09/13 12:36:39;;;;;;;3.20;2.10;;;;;;;;;;5059920;28;20170;-80
2022/09/13 12:39:32;;;;;;;4.90;2.60;;;;;;;;;;5067213;28;20036;-79
2022/09/13 12:42:26;;;;;;;3.22;2.35;;;;;;;;;;5071077;28;20024;-79
2022/09/13 12:45:00;;;;;;;;;;;;;;;;;;5069434;28;20060;-79
2022/09/13 12:48:00;;;;;;;2.97;2.28;;;;;;;;;;5066847;28;19919;-80
2022/09/13 12:50:48;;;;;;;3.47;2.05;;;;;;;;;;5067854;28;20040;-79
2022/09/13 12:53:38;;;;;;;4.03;1.95;;;;;;;;;;5065120;28;20031;-80
2022/09/13 12:56:29;;;;;;;4.00;1.80;;;;;;;;;;5050668;28;20548;-79
2022/09/13 12:59:10;;;;;;;3.55;1.77;;;;;;;;;;5047689;28;20040;-82
2022/09/13 13:01:36;;;;;;;2.63;1.65;;;;;;;;;;5046676;28;20036;-80
2022/09/13 13:04:33;;;;;;;4.30;1.60;;;;;;;;;;5049823;28;20503;-80
2022/09/13 13:07:02;;;;;;;3.45;1.90;;;;;;;;;;5060561;28;20049;-80
2022/09/13 13:09:41;;;;;;;3.78;2.00;;;;;;;;;;5066343;28;20446;-80
2022/09/13 13:12:25;;;;;;;2.30;1.95;;;;;;;;;;5065492;28;20028;-81
2022/09/13 13:14:52;;;;;;;3.53;1.75;;;;;;;;;;5062149;28;20086;-80
2022/09/13 13:17:54;;;;;;;3.38;1.90;;;;;;;;;;5066543;28;20072;-80
2022/09/13 13:20:37;;;;;;;3.65;1.83;;;;;;;;;;5037340;28;20029;-79
2022/09/13 13:23:23;;;;;;;1.95;1.63;;;;;;;;;;5043708;28;20028;-80
2022/09/13 13:26:22;;;;;;;3.22;1.95;;;;;;;;;;5048743;28;20082;-80
2022/09/13 13:28:50;;;;;;;2.75;1.88;;;;;;;;;;5069975;28;20391;-79
2022/09/13 13:31:31;;;;;;;2.60;1.70;;;;;;;;;;5049261;28;20432;-79
2022/09/13 13:34:04;;;;;;;3.83;2.30;;;;;;;;;;5050250;28;20060;-80
2022/09/13 13:36:32;;;;;;;4.22;2.15;;;;;;;;;;5061059;28;20032;-80
2022/09/13 13:39:02;;;;;;;2.67;1.80;;;;;;;;;;5064111;28;20035;-80
2022/09/13 13:41:37;;;;;;;3.70;1.80;;;;;;;;;;5047707;28;20560;-80
2022/09/13 13:44:14;;;;;;;1.80;1.40;;;;;;;;;;5062052;28;20021;-79
2022/09/13 13:46:41;;;;;;;4.03;1.77;;;;;;;;;;5058927;28;20024;-80
2022/09/13 13:49:35;;;;;;;5.22;2.10;;;;;;;;;;5063763;28;20058;-79
2022/09/13 13:52:06;;;;;;;4.97;2.50;;;;;;;;;;5067679;28;20025;-80
2022/09/13 13:54:41;;;;;;;3.35;1.95;;;;;;;;;;5066498;28;21251;-80
2022/09/13 13:57:37;;;;;;;4.30;1.70;;;;;;;;;;5049034;28;20032;-80
2022/09/13 14:00:22;;;;;;;4.35;2.45;;;;;;;;;;5060547;28;20058;-80
2022/09/13 14:02:53;;;;;;;3.05;1.95;;;;;;;;;;5047652;28;20115;-81
2022/09/13 14:05:40;;;;;;;2.60;1.95;;;;;;;;;;5049457;28;20037;-80
2022/09/13 14:08:30;;;;;;;5.50;1.70;;;;;;;;;;5062967;28;20106;-80
2022/09/13 14:11:25;;;;;;;3.50;1.70;;;;;;;;;;5066814;28;20024;-80
2022/09/13 14:14:09;;;;;;;3.28;1.65;;;;;;;;;;5052271;28;20518;-79
2022/09/13 14:16:53;;;;;;;3.30;1.80;;;;;;;;;;5061073;28;20031;-79
2022/09/13 14:19:42;;;;;;;3.50;1.70;;;;;;;;;;5074942;28;20063;-80
2022/09/13 14:22:27;;;;;;;3.05;1.48;;;;;;;;;;5074860;28;20035;-80
2022/09/13 14:24:55;;;;;;;1.95;1.35;;;;;;;;;;5049663;28;20440;-80
2022/09/13 14:27:34;;;;;;;4.03;1.90;;;;;;;;;;5065985;28;20503;-80
2022/09/13 14:30:19;;;;;;;3.42;2.05;;;;;;;;;;5065106;28;20110;-79
2022/09/13 14:32:48;;;;;;;5.65;1.70;;;;;;;;;;5058931;28;20091;-79
2022/09/13 14:35:35;;;;;;;2.45;1.60;;;;;;;;;;5062898;28;20024;-80
2022/09/13 14:38:31;;;;;;;2.67;1.60;;;;;;;;;;5063356;28;20496;-80
2022/09/13 14:41:18;;;;;;;1.88;1.45;;;;;;;;;;5045287;28;20487;-80
2022/09/13 14:43:44;;;;;;;2.85;1.60;;;;;;;;;;5046054;28;20033;-81
2022/09/13 14:46:33;;;;;;;2.92;2.17;;;;;;;;;;5065217;28;20036;-80
2022/09/13 14:49:08;;;;;;;3.10;1.70;;;;;;;;;;5061161;28;20078;-80
2022/09/13 14:51:46;;;;;;;4.47;1.50;;;;;;;;;;5064896;28;20095;-80
2022/09/13 14:54:36;;;;;;;2.80;2.00;;;;;;;;;;5065592;28;20029;-80
2022/09/13 14:57:06;;;;;;;3.80;2.00;;;;;;;;;;5040370;28;20544;-80
2022/09/13 14:59:44;;;;;;;4.95;2.15;;;;;;;;;;5061045;28;20031;-80
2022/09/13 15:02:23;;;;;;;2.70;1.52;;;;;;;;;;5063701;28;20041;-80
2022/09/13 15:04:56;;;;;;;4.95;2.58;;;;;;;;;;5050122;28;20104;-80
2022/09/13 15:07:31;;;;;;;2.10;1.70;;;;;;;;;;5062061;28;20024;-80
2022/09/13 15:10:17;;;;;;;2.88;1.40;;;;;;;;;;5059725;28;20408;-80
2022/09/13 15:12:52;;;;;;;3.13;1.40;;;;;;;;;;5038211;28;20041;-80
2022/09/13 15:15:22;;;;;;;2.88;1.50;;;;;;;;;;5061792;28;20642;-81
2022/09/13 15:17:59;;;;;;;3.05;1.70;;;;;;;;;;5044640;28;20090;-80